sensor_id;sensor_type;location;lat;lon;timestamp;P1;durP1;ratioP1;P2;durP2;ratioP2
13868;SDS011;7004;48.206;16.402;2022-12-10T00:01:22;10.33;;;8.70;;
13868;SDS011;7004;48.206;16.402;2022-12-10T00:03:50;10.10;;;8.47;;
13868;SDS011;7004;48.206;16.402;2022-12-10T00:06:18;10.33;;;8.63;;
13868;SDS011;7004;48.206;16.402;2022-12-10T00:08:48;9.37;;;7.97;;
13868;SDS011;7004;48.206;16.402;2022-12-10T00:11:15;10.43;;;8.57;;
13868;SDS011;7004;48.206;16.402;2022-12-10T00:13:43;10.00;;;8.40;;
13868;SDS011;7004;48.206;16.402;2022-12-10T00:16:12;12.00;;;8.70;;
13868;SDS011;7004;48.206;16.402;2022-12-10T00:18:41;9.07;;;8.07;;
13868;SDS011;7004;48.206;16.402;2022-12-10T00:21:12;8.83;;;7.70;;
13868;SDS011;7004;48.206;16.402;2022-12-10T00:23:43;9.30;;;8.30;;
13868;SDS011;7004;48.206;16.402;2022-12-10T00:26:11;8.87;;;7.43;;
13868;SDS011;7004;48.206;16.402;2022-12-10T00:28:47;8.87;;;7.93;;
13868;SDS011;7004;48.206;16.402;2022-12-10T00:31:15;9.27;;;7.40;;
13868;SDS011;7004;48.206;16.402;2022-12-10T00:33:44;8.40;;;6.87;;
13868;SDS011;7004;48.206;16.402;2022-12-10T00:36:12;8.63;;;7.73;;
13868;SDS011;7004;48.206;16.402;2022-12-10T00:38:45;9.03;;;7.47;;
13868;SDS011;7004;48.206;16.402;2022-12-10T00:41:14;8.93;;;7.30;;
13868;SDS011;7004;48.206;16.402;2022-12-10T00:43:42;8.47;;;7.57;;
13868;SDS011;7004;48.206;16.402;2022-12-10T00:46:09;8.00;;;6.93;;
13868;SDS011;7004;48.206;16.402;2022-12-10T00:48:37;9.07;;;7.47;;
13868;SDS011;7004;48.206;16.402;2022-12-10T00:51:06;8.03;;;7.10;;
13868;SDS011;7004;48.206;16.402;2022-12-10T00:53:36;9.60;;;7.07;;
13868;SDS011;7004;48.206;16.402;2022-12-10T00:56:04;8.77;;;7.60;;
13868;SDS011;7004;48.206;16.402;2022-12-10T00:58:32;9.90;;;8.17;;
13868;SDS011;7004;48.206;16.402;2022-12-10T01:01:06;9.20;;;7.40;;
13868;SDS011;7004;48.206;16.402;2022-12-10T01:03:34;8.43;;;7.50;;
13868;SDS011;7004;48.206;16.402;2022-12-10T01:06:08;10.00;;;8.70;;
13868;SDS011;7004;48.206;16.402;2022-12-10T01:08:48;11.93;;;9.57;;
13868;SDS011;7004;48.206;16.402;2022-12-10T01:11:17;10.07;;;8.83;;
13868;SDS011;7004;48.206;16.402;2022-12-10T01:13:45;11.57;;;9.70;;
13868;SDS011;7004;48.206;16.402;2022-12-10T01:16:14;11.80;;;9.43;;
13868;SDS011;7004;48.206;16.402;2022-12-10T01:18:43;11.90;;;10.00;;
13868;SDS011;7004;48.206;16.402;2022-12-10T01:21:11;12.77;;;10.07;;
13868;SDS011;7004;48.206;16.402;2022-12-10T01:23:41;13.10;;;10.77;;
13868;SDS011;7004;48.206;16.402;2022-12-10T01:26:10;13.57;;;10.97;;
13868;SDS011;7004;48.206;16.402;2022-12-10T01:28:39;15.00;;;11.13;;
13868;SDS011;7004;48.206;16.402;2022-12-10T01:31:09;14.13;;;11.30;;
13868;SDS011;7004;48.206;16.402;2022-12-10T01:33:41;15.13;;;11.17;;
13868;SDS011;7004;48.206;16.402;2022-12-10T01:36:12;12.37;;;10.40;;
13868;SDS011;7004;48.206;16.402;2022-12-10T01:38:41;13.77;;;10.53;;
13868;SDS011;7004;48.206;16.402;2022-12-10T01:41:10;12.37;;;10.20;;
13868;SDS011;7004;48.206;16.402;2022-12-10T01:46:24;14.13;;;11.50;;
13868;SDS011;7004;48.206;16.402;2022-12-10T01:49:03;12.50;;;10.20;;
13868;SDS011;7004;48.206;16.402;2022-12-10T01:51:34;13.07;;;10.50;;
13868;SDS011;7004;48.206;16.402;2022-12-10T01:54:05;13.50;;;10.57;;
13868;SDS011;7004;48.206;16.402;2022-12-10T01:56:35;11.80;;;9.60;;
13868;SDS011;7004;48.206;16.402;2022-12-10T01:59:09;13.03;;;10.33;;
13868;SDS011;7004;48.206;16.402;2022-12-10T02:13:08;12.63;;;9.93;;
13868;SDS011;7004;48.206;16.402;2022-12-10T02:16:02;13.40;;;10.03;;
13868;SDS011;7004;48.206;16.402;2022-12-10T02:18:34;13.63;;;10.53;;
13868;SDS011;7004;48.206;16.402;2022-12-10T02:21:09;12.67;;;10.60;;
13868;SDS011;7004;48.206;16.402;2022-12-10T02:23:52;12.23;;;10.00;;
13868;SDS011;7004;48.206;16.402;2022-12-10T02:29:39;14.60;;;10.47;;
13868;SDS011;7004;48.206;16.402;2022-12-10T02:32:10;14.63;;;10.23;;
13868;SDS011;7004;48.206;16.402;2022-12-10T02:34:41;12.80;;;10.40;;
13868;SDS011;7004;48.206;16.402;2022-12-10T02:37:35;12.67;;;9.87;;
13868;SDS011;7004;48.206;16.402;2022-12-10T02:40:22;13.57;;;10.80;;
13868;SDS011;7004;48.206;16.402;2022-12-10T02:42:54;13.27;;;10.47;;
13868;SDS011;7004;48.206;16.402;2022-12-10T02:45:21;11.87;;;9.90;;
13868;SDS011;7004;48.206;16.402;2022-12-10T02:47:51;13.07;;;10.37;;
13868;SDS011;7004;48.206;16.402;2022-12-10T02:50:23;13.67;;;10.57;;
13868;SDS011;7004;48.206;16.402;2022-12-10T02:52:50;13.20;;;11.10;;
13868;SDS011;7004;48.206;16.402;2022-12-10T02:55:17;14.43;;;11.53;;
13868;SDS011;7004;48.206;16.402;2022-12-10T02:58:03;14.73;;;11.47;;
13868;SDS011;7004;48.206;16.402;2022-12-10T03:04:22;14.87;;;11.43;;
13868;SDS011;7004;48.206;16.402;2022-12-10T03:07:07;14.47;;;11.33;;
13868;SDS011;7004;48.206;16.402;2022-12-10T03:09:47;13.00;;;10.13;;
13868;SDS011;7004;48.206;16.402;2022-12-10T03:12:21;15.37;;;10.80;;
13868;SDS011;7004;48.206;16.402;2022-12-10T03:15:02;14.83;;;11.20;;
13868;SDS011;7004;48.206;16.402;2022-12-10T03:17:34;13.37;;;11.10;;
13868;SDS011;7004;48.206;16.402;2022-12-10T03:20:07;14.30;;;11.57;;
13868;SDS011;7004;48.206;16.402;2022-12-10T03:22:37;15.33;;;11.80;;
13868;SDS011;7004;48.206;16.402;2022-12-10T03:25:08;14.30;;;11.43;;
13868;SDS011;7004;48.206;16.402;2022-12-10T03:27:38;14.97;;;11.23;;
13868;SDS011;7004;48.206;16.402;2022-12-10T03:30:06;14.93;;;11.60;;
13868;SDS011;7004;48.206;16.402;2022-12-10T03:32:34;15.60;;;11.20;;
13868;SDS011;7004;48.206;16.402;2022-12-10T03:35:00;14.97;;;11.97;;
13868;SDS011;7004;48.206;16.402;2022-12-10T03:37:29;14.97;;;11.40;;
13868;SDS011;7004;48.206;16.402;2022-12-10T03:39:56;13.40;;;10.77;;
13868;SDS011;7004;48.206;16.402;2022-12-10T03:42:23;15.63;;;11.50;;
13868;SDS011;7004;48.206;16.402;2022-12-10T03:44:50;15.57;;;12.10;;
13868;SDS011;7004;48.206;16.402;2022-12-10T03:47:17;17.10;;;13.27;;
13868;SDS011;7004;48.206;16.402;2022-12-10T03:49:44;17.23;;;12.57;;
13868;SDS011;7004;48.206;16.402;2022-12-10T03:52:11;17.00;;;12.33;;
13868;SDS011;7004;48.206;16.402;2022-12-10T03:54:37;16.43;;;12.17;;
13868;SDS011;7004;48.206;16.402;2022-12-10T03:57:03;17.30;;;12.63;;
13868;SDS011;7004;48.206;16.402;2022-12-10T03:59:29;14.40;;;12.30;;
13868;SDS011;7004;48.206;16.402;2022-12-10T04:01:55;16.67;;;13.23;;
13868;SDS011;7004;48.206;16.402;2022-12-10T04:04:21;17.83;;;13.13;;
13868;SDS011;7004;48.206;16.402;2022-12-10T04:06:48;15.50;;;12.10;;
13868;SDS011;7004;48.206;16.402;2022-12-10T04:09:14;16.37;;;12.87;;
13868;SDS011;7004;48.206;16.402;2022-12-10T04:11:41;18.63;;;13.60;;
13868;SDS011;7004;48.206;16.402;2022-12-10T04:14:10;17.70;;;13.63;;
13868;SDS011;7004;48.206;16.402;2022-12-10T04:16:56;18.07;;;13.13;;
13868;SDS011;7004;48.206;16.402;2022-12-10T04:19:23;18.37;;;13.10;;
13868;SDS011;7004;48.206;16.402;2022-12-10T04:21:49;18.07;;;13.03;;
13868;SDS011;7004;48.206;16.402;2022-12-10T04:24:34;16.17;;;12.13;;
13868;SDS011;7004;48.206;16.402;2022-12-10T04:27:24;16.40;;;13.07;;
13868;SDS011;7004;48.206;16.402;2022-12-10T04:29:52;15.73;;;12.27;;
13868;SDS011;7004;48.206;16.402;2022-12-10T04:32:21;17.60;;;13.53;;
13868;SDS011;7004;48.206;16.402;2022-12-10T04:34:48;16.30;;;12.37;;
13868;SDS011;7004;48.206;16.402;2022-12-10T04:37:15;16.23;;;12.27;;
13868;SDS011;7004;48.206;16.402;2022-12-10T04:39:42;16.23;;;12.43;;
13868;SDS011;7004;48.206;16.402;2022-12-10T04:42:08;16.67;;;12.40;;
13868;SDS011;7004;48.206;16.402;2022-12-10T04:44:35;16.83;;;12.87;;
13868;SDS011;7004;48.206;16.402;2022-12-10T04:47:03;15.13;;;12.43;;
13868;SDS011;7004;48.206;16.402;2022-12-10T04:49:31;16.27;;;11.90;;
13868;SDS011;7004;48.206;16.402;2022-12-10T04:51:58;17.17;;;13.30;;
13868;SDS011;7004;48.206;16.402;2022-12-10T04:54:25;17.73;;;12.83;;
13868;SDS011;7004;48.206;16.402;2022-12-10T04:56:52;20.10;;;12.67;;
13868;SDS011;7004;48.206;16.402;2022-12-10T04:59:18;16.47;;;12.97;;
13868;SDS011;7004;48.206;16.402;2022-12-10T05:01:45;17.77;;;13.30;;
13868;SDS011;7004;48.206;16.402;2022-12-10T05:04:12;16.97;;;13.00;;
13868;SDS011;7004;48.206;16.402;2022-12-10T05:06:41;18.03;;;13.87;;
13868;SDS011;7004;48.206;16.402;2022-12-10T05:09:09;18.43;;;14.17;;
13868;SDS011;7004;48.206;16.402;2022-12-10T05:11:37;20.17;;;14.93;;
13868;SDS011;7004;48.206;16.402;2022-12-10T05:14:03;17.03;;;13.30;;
13868;SDS011;7004;48.206;16.402;2022-12-10T05:16:30;21.53;;;14.20;;
13868;SDS011;7004;48.206;16.402;2022-12-10T05:18:58;18.50;;;14.23;;
13868;SDS011;7004;48.206;16.402;2022-12-10T05:21:26;18.33;;;13.30;;
13868;SDS011;7004;48.206;16.402;2022-12-10T05:24:14;18.50;;;13.63;;
13868;SDS011;7004;48.206;16.402;2022-12-10T05:26:42;19.83;;;14.93;;
13868;SDS011;7004;48.206;16.402;2022-12-10T05:29:09;20.87;;;14.67;;
13868;SDS011;7004;48.206;16.402;2022-12-10T05:31:37;17.20;;;13.17;;
13868;SDS011;7004;48.206;16.402;2022-12-10T05:34:03;19.53;;;14.13;;
13868;SDS011;7004;48.206;16.402;2022-12-10T05:36:29;17.27;;;13.47;;
13868;SDS011;7004;48.206;16.402;2022-12-10T05:38:57;19.23;;;13.23;;
13868;SDS011;7004;48.206;16.402;2022-12-10T05:41:25;18.03;;;13.77;;
13868;SDS011;7004;48.206;16.402;2022-12-10T05:43:54;17.00;;;13.47;;
13868;SDS011;7004;48.206;16.402;2022-12-10T05:46:23;19.07;;;14.53;;
13868;SDS011;7004;48.206;16.402;2022-12-10T05:48:52;22.67;;;14.20;;
13868;SDS011;7004;48.206;16.402;2022-12-10T05:51:20;19.80;;;14.33;;
13868;SDS011;7004;48.206;16.402;2022-12-10T05:53:51;19.33;;;14.20;;
13868;SDS011;7004;48.206;16.402;2022-12-10T05:56:19;18.40;;;14.03;;
13868;SDS011;7004;48.206;16.402;2022-12-10T05:58:49;18.53;;;13.87;;
13868;SDS011;7004;48.206;16.402;2022-12-10T06:01:23;20.13;;;14.67;;
13868;SDS011;7004;48.206;16.402;2022-12-10T06:03:52;20.83;;;14.17;;
13868;SDS011;7004;48.206;16.402;2022-12-10T06:06:20;18.83;;;14.20;;
13868;SDS011;7004;48.206;16.402;2022-12-10T06:08:52;20.43;;;14.97;;
13868;SDS011;7004;48.206;16.402;2022-12-10T06:11:19;23.00;;;14.23;;
13868;SDS011;7004;48.206;16.402;2022-12-10T06:13:45;21.50;;;14.53;;
13868;SDS011;7004;48.206;16.402;2022-12-10T06:16:13;20.40;;;13.70;;
13868;SDS011;7004;48.206;16.402;2022-12-10T06:18:40;20.73;;;14.50;;
13868;SDS011;7004;48.206;16.402;2022-12-10T06:21:08;19.90;;;13.73;;
13868;SDS011;7004;48.206;16.402;2022-12-10T06:23:38;22.63;;;14.67;;
13868;SDS011;7004;48.206;16.402;2022-12-10T06:26:06;22.47;;;14.83;;
13868;SDS011;7004;48.206;16.402;2022-12-10T06:28:35;20.17;;;14.97;;
13868;SDS011;7004;48.206;16.402;2022-12-10T06:31:01;24.67;;;15.53;;
13868;SDS011;7004;48.206;16.402;2022-12-10T06:33:28;20.03;;;14.33;;
13868;SDS011;7004;48.206;16.402;2022-12-10T06:35:54;23.07;;;14.87;;
13868;SDS011;7004;48.206;16.402;2022-12-10T06:38:20;22.07;;;14.83;;
13868;SDS011;7004;48.206;16.402;2022-12-10T06:40:47;20.37;;;14.60;;
13868;SDS011;7004;48.206;16.402;2022-12-10T06:43:13;21.57;;;14.87;;
13868;SDS011;7004;48.206;16.402;2022-12-10T06:45:40;21.17;;;15.67;;
13868;SDS011;7004;48.206;16.402;2022-12-10T06:48:07;22.90;;;15.47;;
13868;SDS011;7004;48.206;16.402;2022-12-10T06:50:34;22.53;;;14.77;;
13868;SDS011;7004;48.206;16.402;2022-12-10T06:53:00;22.97;;;15.67;;
13868;SDS011;7004;48.206;16.402;2022-12-10T06:55:27;24.87;;;16.70;;
13868;SDS011;7004;48.206;16.402;2022-12-10T06:57:54;24.50;;;16.33;;
13868;SDS011;7004;48.206;16.402;2022-12-10T07:00:21;22.37;;;15.37;;
13868;SDS011;7004;48.206;16.402;2022-12-10T07:02:47;21.83;;;15.43;;
13868;SDS011;7004;48.206;16.402;2022-12-10T07:05:13;22.77;;;15.60;;
13868;SDS011;7004;48.206;16.402;2022-12-10T07:07:40;22.57;;;16.13;;
13868;SDS011;7004;48.206;16.402;2022-12-10T07:10:06;20.80;;;15.17;;
13868;SDS011;7004;48.206;16.402;2022-12-10T07:12:32;24.87;;;16.77;;
13868;SDS011;7004;48.206;16.402;2022-12-10T07:14:59;22.63;;;16.37;;
13868;SDS011;7004;48.206;16.402;2022-12-10T07:17:25;26.67;;;16.83;;
13868;SDS011;7004;48.206;16.402;2022-12-10T07:19:51;21.23;;;15.90;;
13868;SDS011;7004;48.206;16.402;2022-12-10T07:22:17;23.10;;;16.43;;
13868;SDS011;7004;48.206;16.402;2022-12-10T07:24:43;22.93;;;16.43;;
13868;SDS011;7004;48.206;16.402;2022-12-10T07:27:09;25.73;;;16.87;;
13868;SDS011;7004;48.206;16.402;2022-12-10T07:29:35;26.20;;;17.63;;
13868;SDS011;7004;48.206;16.402;2022-12-10T07:32:01;24.80;;;17.73;;
13868;SDS011;7004;48.206;16.402;2022-12-10T07:34:29;26.40;;;16.70;;
13868;SDS011;7004;48.206;16.402;2022-12-10T07:36:55;26.20;;;16.40;;
13868;SDS011;7004;48.206;16.402;2022-12-10T07:39:22;27.27;;;17.47;;
13868;SDS011;7004;48.206;16.402;2022-12-10T07:41:48;25.30;;;16.70;;
13868;SDS011;7004;48.206;16.402;2022-12-10T07:44:21;24.90;;;16.50;;
13868;SDS011;7004;48.206;16.402;2022-12-10T07:46:50;24.53;;;16.43;;
13868;SDS011;7004;48.206;16.402;2022-12-10T07:49:18;26.67;;;17.37;;
13868;SDS011;7004;48.206;16.402;2022-12-10T07:51:45;28.23;;;16.97;;
13868;SDS011;7004;48.206;16.402;2022-12-10T07:54:15;27.87;;;17.67;;
13868;SDS011;7004;48.206;16.402;2022-12-10T07:56:42;27.33;;;17.70;;
13868;SDS011;7004;48.206;16.402;2022-12-10T07:59:08;25.13;;;17.20;;
13868;SDS011;7004;48.206;16.402;2022-12-10T08:01:35;27.03;;;17.83;;
13868;SDS011;7004;48.206;16.402;2022-12-10T08:04:01;27.63;;;17.53;;
13868;SDS011;7004;48.206;16.402;2022-12-10T08:06:29;29.63;;;19.67;;
13868;SDS011;7004;48.206;16.402;2022-12-10T08:08:57;26.00;;;17.90;;
13868;SDS011;7004;48.206;16.402;2022-12-10T08:11:24;27.77;;;18.27;;
13868;SDS011;7004;48.206;16.402;2022-12-10T08:13:52;26.80;;;17.80;;
13868;SDS011;7004;48.206;16.402;2022-12-10T08:16:20;29.73;;;19.37;;
13868;SDS011;7004;48.206;16.402;2022-12-10T08:18:50;27.23;;;17.80;;
13868;SDS011;7004;48.206;16.402;2022-12-10T08:21:17;26.83;;;17.90;;
13868;SDS011;7004;48.206;16.402;2022-12-10T08:23:46;25.77;;;17.23;;
13868;SDS011;7004;48.206;16.402;2022-12-10T08:26:14;28.17;;;18.63;;
13868;SDS011;7004;48.206;16.402;2022-12-10T08:28:47;26.77;;;17.77;;
13868;SDS011;7004;48.206;16.402;2022-12-10T08:31:14;27.27;;;17.87;;
13868;SDS011;7004;48.206;16.402;2022-12-10T08:33:42;26.83;;;17.93;;
13868;SDS011;7004;48.206;16.402;2022-12-10T08:36:09;28.43;;;18.10;;
13868;SDS011;7004;48.206;16.402;2022-12-10T08:38:39;25.90;;;17.47;;
13868;SDS011;7004;48.206;16.402;2022-12-10T08:41:07;26.63;;;17.60;;
13868;SDS011;7004;48.206;16.402;2022-12-10T08:43:41;28.30;;;17.77;;
13868;SDS011;7004;48.206;16.402;2022-12-10T08:46:08;25.70;;;17.47;;
13868;SDS011;7004;48.206;16.402;2022-12-10T08:48:35;26.67;;;16.97;;
13868;SDS011;7004;48.206;16.402;2022-12-10T08:51:03;27.23;;;17.33;;
13868;SDS011;7004;48.206;16.402;2022-12-10T08:53:31;27.70;;;17.20;;
13868;SDS011;7004;48.206;16.402;2022-12-10T08:55:58;28.67;;;17.97;;
13868;SDS011;7004;48.206;16.402;2022-12-10T08:58:24;29.53;;;18.87;;
13868;SDS011;7004;48.206;16.402;2022-12-10T09:00:50;26.73;;;17.67;;
13868;SDS011;7004;48.206;16.402;2022-12-10T09:03:17;27.87;;;19.00;;
13868;SDS011;7004;48.206;16.402;2022-12-10T09:05:43;28.33;;;17.97;;
13868;SDS011;7004;48.206;16.402;2022-12-10T09:08:10;28.40;;;18.40;;
13868;SDS011;7004;48.206;16.402;2022-12-10T09:10:37;27.30;;;18.27;;
13868;SDS011;7004;48.206;16.402;2022-12-10T09:13:04;25.83;;;17.63;;
13868;SDS011;7004;48.206;16.402;2022-12-10T09:15:30;28.43;;;17.17;;
13868;SDS011;7004;48.206;16.402;2022-12-10T09:17:57;28.03;;;18.57;;
13868;SDS011;7004;48.206;16.402;2022-12-10T09:20:23;27.33;;;18.00;;
13868;SDS011;7004;48.206;16.402;2022-12-10T09:22:49;25.40;;;17.53;;
13868;SDS011;7004;48.206;16.402;2022-12-10T09:25:15;26.37;;;17.30;;
13868;SDS011;7004;48.206;16.402;2022-12-10T09:27:42;28.93;;;18.37;;
13868;SDS011;7004;48.206;16.402;2022-12-10T09:30:09;24.13;;;16.97;;
13868;SDS011;7004;48.206;16.402;2022-12-10T09:32:37;25.73;;;17.10;;
13868;SDS011;7004;48.206;16.402;2022-12-10T09:35:03;29.03;;;19.03;;
13868;SDS011;7004;48.206;16.402;2022-12-10T09:37:31;28.03;;;17.53;;
13868;SDS011;7004;48.206;16.402;2022-12-10T09:39:57;28.20;;;18.00;;
13868;SDS011;7004;48.206;16.402;2022-12-10T09:45:18;28.00;;;18.43;;
13868;SDS011;7004;48.206;16.402;2022-12-10T09:50:55;29.17;;;18.27;;
13868;SDS011;7004;48.206;16.402;2022-12-10T09:53:28;28.30;;;18.50;;
13868;SDS011;7004;48.206;16.402;2022-12-10T09:55:56;28.90;;;17.67;;
13868;SDS011;7004;48.206;16.402;2022-12-10T09:58:25;27.33;;;17.80;;
13868;SDS011;7004;48.206;16.402;2022-12-10T10:03:29;27.20;;;17.53;;
13868;SDS011;7004;48.206;16.402;2022-12-10T10:06:02;25.60;;;17.03;;
13868;SDS011;7004;48.206;16.402;2022-12-10T10:08:33;26.90;;;18.07;;
13868;SDS011;7004;48.206;16.402;2022-12-10T10:11:25;26.40;;;16.83;;
13868;SDS011;7004;48.206;16.402;2022-12-10T10:13:59;25.33;;;16.47;;
13868;SDS011;7004;48.206;16.402;2022-12-10T10:19:34;29.93;;;17.43;;
13868;SDS011;7004;48.206;16.402;2022-12-10T10:22:03;30.80;;;18.10;;
13868;SDS011;7004;48.206;16.402;2022-12-10T10:24:40;24.87;;;17.50;;
13868;SDS011;7004;48.206;16.402;2022-12-10T10:27:22;24.60;;;17.00;;
13868;SDS011;7004;48.206;16.402;2022-12-10T10:29:54;27.57;;;17.03;;
13868;SDS011;7004;48.206;16.402;2022-12-10T10:32:24;24.77;;;17.37;;
13868;SDS011;7004;48.206;16.402;2022-12-10T10:35:01;26.23;;;17.70;;
13868;SDS011;7004;48.206;16.402;2022-12-10T10:37:29;27.80;;;17.63;;
13868;SDS011;7004;48.206;16.402;2022-12-10T10:40:06;26.03;;;17.80;;
13868;SDS011;7004;48.206;16.402;2022-12-10T10:42:54;29.90;;;18.77;;
13868;SDS011;7004;48.206;16.402;2022-12-10T10:48:04;27.03;;;17.77;;
13868;SDS011;7004;48.206;16.402;2022-12-10T10:50:52;29.07;;;18.87;;
13868;SDS011;7004;48.206;16.402;2022-12-10T11:01:48;28.83;;;18.17;;
13868;SDS011;7004;48.206;16.402;2022-12-10T11:04:28;27.20;;;18.63;;
13868;SDS011;7004;48.206;16.402;2022-12-10T11:07:01;28.10;;;18.13;;
13868;SDS011;7004;48.206;16.402;2022-12-10T11:09:31;27.57;;;18.67;;
13868;SDS011;7004;48.206;16.402;2022-12-10T11:12:00;26.93;;;18.80;;
13868;SDS011;7004;48.206;16.402;2022-12-10T11:14:45;28.53;;;19.20;;
13868;SDS011;7004;48.206;16.402;2022-12-10T11:22:25;31.20;;;19.57;;
13868;SDS011;7004;48.206;16.402;2022-12-10T11:24:58;32.63;;;19.40;;
13868;SDS011;7004;48.206;16.402;2022-12-10T11:27:36;28.73;;;18.80;;
13868;SDS011;7004;48.206;16.402;2022-12-10T11:30:23;31.37;;;19.63;;
13868;SDS011;7004;48.206;16.402;2022-12-10T11:33:05;30.80;;;19.13;;
13868;SDS011;7004;48.206;16.402;2022-12-10T11:39:20;33.13;;;20.37;;
13868;SDS011;7004;48.206;16.402;2022-12-10T11:42:09;32.77;;;19.70;;
13868;SDS011;7004;48.206;16.402;2022-12-10T11:51:06;28.20;;;18.60;;
13868;SDS011;7004;48.206;16.402;2022-12-10T11:56:44;31.20;;;19.60;;
13868;SDS011;7004;48.206;16.402;2022-12-10T11:59:26;30.73;;;20.07;;
13868;SDS011;7004;48.206;16.402;2022-12-10T12:07:52;30.33;;;20.30;;
13868;SDS011;7004;48.206;16.402;2022-12-10T12:14:00;31.67;;;19.80;;
13868;SDS011;7004;48.206;16.402;2022-12-10T12:16:55;30.17;;;19.47;;
13868;SDS011;7004;48.206;16.402;2022-12-10T12:19:51;31.30;;;19.30;;
13868;SDS011;7004;48.206;16.402;2022-12-10T12:25:20;33.33;;;20.33;;
13868;SDS011;7004;48.206;16.402;2022-12-10T12:28:35;33.07;;;20.70;;
13868;SDS011;7004;48.206;16.402;2022-12-10T12:31:18;31.30;;;20.20;;
13868;SDS011;7004;48.206;16.402;2022-12-10T12:34:37;32.43;;;20.87;;
13868;SDS011;7004;48.206;16.402;2022-12-10T12:36:54;33.73;;;20.20;;
13868;SDS011;7004;48.206;16.402;2022-12-10T12:42:30;32.57;;;19.70;;
13868;SDS011;7004;48.206;16.402;2022-12-10T12:45:04;33.07;;;20.73;;
13868;SDS011;7004;48.206;16.402;2022-12-10T12:50:33;30.83;;;19.40;;
13868;SDS011;7004;48.206;16.402;2022-12-10T12:53:15;33.17;;;19.23;;
13868;SDS011;7004;48.206;16.402;2022-12-10T12:56:05;29.43;;;19.50;;
13868;SDS011;7004;48.206;16.402;2022-12-10T13:01:51;28.70;;;18.73;;
13868;SDS011;7004;48.206;16.402;2022-12-10T13:04:45;30.53;;;19.30;;
13868;SDS011;7004;48.206;16.402;2022-12-10T13:09:44;27.27;;;18.80;;
13868;SDS011;7004;48.206;16.402;2022-12-10T13:12:32;32.57;;;19.07;;
13868;SDS011;7004;48.206;16.402;2022-12-10T13:23:49;32.90;;;18.40;;
13868;SDS011;7004;48.206;16.402;2022-12-10T13:26:27;29.90;;;19.30;;
13868;SDS011;7004;48.206;16.402;2022-12-10T13:28:56;30.53;;;18.80;;
13868;SDS011;7004;48.206;16.402;2022-12-10T13:32:02;29.00;;;17.63;;
13868;SDS011;7004;48.206;16.402;2022-12-10T13:34:38;27.97;;;18.57;;
13868;SDS011;7004;48.206;16.402;2022-12-10T13:37:10;29.77;;;17.47;;
13868;SDS011;7004;48.206;16.402;2022-12-10T13:42:33;27.70;;;17.87;;
13868;SDS011;7004;48.206;16.402;2022-12-10T14:04:01;31.17;;;19.20;;
13868;SDS011;7004;48.206;16.402;2022-12-10T14:07:15;29.37;;;17.37;;
13868;SDS011;7004;48.206;16.402;2022-12-10T14:10:01;29.83;;;18.87;;
13868;SDS011;7004;48.206;16.402;2022-12-10T14:12:35;27.70;;;17.70;;
13868;SDS011;7004;48.206;16.402;2022-12-10T14:17:38;27.63;;;18.87;;
13868;SDS011;7004;48.206;16.402;2022-12-10T14:20:08;31.27;;;19.40;;
13868;SDS011;7004;48.206;16.402;2022-12-10T14:22:50;30.47;;;19.77;;
13868;SDS011;7004;48.206;16.402;2022-12-10T14:25:42;34.27;;;19.67;;
13868;SDS011;7004;48.206;16.402;2022-12-10T14:28:15;31.73;;;19.50;;
13868;SDS011;7004;48.206;16.402;2022-12-10T14:30:44;27.97;;;18.10;;
13868;SDS011;7004;48.206;16.402;2022-12-10T14:33:15;27.03;;;18.10;;
13868;SDS011;7004;48.206;16.402;2022-12-10T14:35:47;29.80;;;19.33;;
13868;SDS011;7004;48.206;16.402;2022-12-10T14:38:36;30.80;;;19.63;;
13868;SDS011;7004;48.206;16.402;2022-12-10T14:41:02;34.67;;;20.10;;
13868;SDS011;7004;48.206;16.402;2022-12-10T14:43:31;28.57;;;18.97;;
13868;SDS011;7004;48.206;16.402;2022-12-10T14:46:04;30.10;;;18.43;;
13868;SDS011;7004;48.206;16.402;2022-12-10T14:48:48;30.03;;;19.30;;
13868;SDS011;7004;48.206;16.402;2022-12-10T14:51:22;27.53;;;18.30;;
13868;SDS011;7004;48.206;16.402;2022-12-10T14:53:53;30.23;;;19.27;;
13868;SDS011;7004;48.206;16.402;2022-12-10T14:56:24;28.80;;;18.57;;
13868;SDS011;7004;48.206;16.402;2022-12-10T15:01:43;33.80;;;20.03;;
13868;SDS011;7004;48.206;16.402;2022-12-10T15:04:18;29.30;;;18.17;;
13868;SDS011;7004;48.206;16.402;2022-12-10T15:06:46;31.37;;;20.03;;
13868;SDS011;7004;48.206;16.402;2022-12-10T15:09:18;29.90;;;18.03;;
13868;SDS011;7004;48.206;16.402;2022-12-10T15:11:57;29.10;;;19.27;;
13868;SDS011;7004;48.206;16.402;2022-12-10T15:14:26;28.70;;;18.97;;
13868;SDS011;7004;48.206;16.402;2022-12-10T15:16:55;28.77;;;18.77;;
13868;SDS011;7004;48.206;16.402;2022-12-10T15:22:01;31.67;;;19.13;;
13868;SDS011;7004;48.206;16.402;2022-12-10T15:24:57;32.77;;;21.13;;
13868;SDS011;7004;48.206;16.402;2022-12-10T15:27:24;44.50;;;22.73;;
13868;SDS011;7004;48.206;16.402;2022-12-10T15:29:51;34.57;;;23.17;;
13868;SDS011;7004;48.206;16.402;2022-12-10T15:32:23;41.57;;;24.57;;
13868;SDS011;7004;48.206;16.402;2022-12-10T15:34:55;35.63;;;21.93;;
13868;SDS011;7004;48.206;16.402;2022-12-10T15:37:34;29.90;;;19.17;;
13868;SDS011;7004;48.206;16.402;2022-12-10T15:40:05;32.60;;;20.23;;
13868;SDS011;7004;48.206;16.402;2022-12-10T15:42:57;31.43;;;20.27;;
13868;SDS011;7004;48.206;16.402;2022-12-10T15:45:50;37.27;;;22.97;;
13868;SDS011;7004;48.206;16.402;2022-12-10T15:48:17;32.47;;;19.87;;
13868;SDS011;7004;48.206;16.402;2022-12-10T15:50:45;29.97;;;19.60;;
13868;SDS011;7004;48.206;16.402;2022-12-10T15:53:16;32.17;;;20.73;;
13868;SDS011;7004;48.206;16.402;2022-12-10T15:56:00;35.13;;;22.03;;
13868;SDS011;7004;48.206;16.402;2022-12-10T15:58:27;31.40;;;20.30;;
13868;SDS011;7004;48.206;16.402;2022-12-10T16:00:54;31.70;;;19.93;;
13868;SDS011;7004;48.206;16.402;2022-12-10T16:03:27;34.13;;;21.80;;
13868;SDS011;7004;48.206;16.402;2022-12-10T16:05:54;33.97;;;20.80;;
13868;SDS011;7004;48.206;16.402;2022-12-10T16:08:24;32.73;;;20.23;;
13868;SDS011;7004;48.206;16.402;2022-12-10T16:10:55;34.60;;;20.90;;
13868;SDS011;7004;48.206;16.402;2022-12-10T16:13:31;34.30;;;21.87;;
13868;SDS011;7004;48.206;16.402;2022-12-10T16:16:08;41.77;;;25.03;;
13868;SDS011;7004;48.206;16.402;2022-12-10T16:18:36;42.90;;;25.07;;
13868;SDS011;7004;48.206;16.402;2022-12-10T16:21:04;38.93;;;22.57;;
13868;SDS011;7004;48.206;16.402;2022-12-10T16:23:33;34.97;;;21.23;;
13868;SDS011;7004;48.206;16.402;2022-12-10T16:26:00;35.07;;;21.50;;
13868;SDS011;7004;48.206;16.402;2022-12-10T16:28:28;32.10;;;20.97;;
13868;SDS011;7004;48.206;16.402;2022-12-10T16:30:55;34.73;;;20.40;;
13868;SDS011;7004;48.206;16.402;2022-12-10T16:33:24;37.03;;;20.70;;
13868;SDS011;7004;48.206;16.402;2022-12-10T16:35:53;33.33;;;20.53;;
13868;SDS011;7004;48.206;16.402;2022-12-10T16:38:22;57.57;;;26.87;;
13868;SDS011;7004;48.206;16.402;2022-12-10T16:40:50;44.40;;;24.10;;
13868;SDS011;7004;48.206;16.402;2022-12-10T16:43:19;36.70;;;21.97;;
13868;SDS011;7004;48.206;16.402;2022-12-10T16:45:51;31.73;;;21.13;;
13868;SDS011;7004;48.206;16.402;2022-12-10T16:48:19;31.13;;;20.43;;
13868;SDS011;7004;48.206;16.402;2022-12-10T16:50:47;34.50;;;21.57;;
13868;SDS011;7004;48.206;16.402;2022-12-10T16:53:18;36.13;;;19.53;;